createdAt,value
2023-01-19T07:11:32.998Z,98757.63
2023-01-19T07:14:35.938Z,98757.63
2023-01-19T07:17:38.282Z,98744.34
2023-01-19T07:20:41.002Z,98737.25
2023-01-19T07:23:43.497Z,98735.44
2023-01-19T07:26:47.539Z,98738.06
2023-01-19T07:29:49.926Z,98733.94
2023-01-19T07:32:55.090Z,98742.41
2023-01-19T07:35:57.496Z,98759.53
2023-01-19T07:39:00.266Z,98767.31
2023-01-19T07:42:04.464Z,98782.37
2023-01-19T07:45:08.430Z,98775.50
2023-01-19T07:48:10.830Z,98777.44
2023-01-19T07:51:18.743Z,98780.97
2023-01-19T07:54:21.298Z,98780.97
2023-01-19T07:57:25.354Z,98771.66
2023-01-19T08:00:27.697Z,98776.75
2023-01-19T08:03:30.386Z,98775.50
2023-01-19T08:06:33.688Z,98777.69
2023-01-19T08:09:36.342Z,98764.50
2023-01-19T08:12:41.122Z,98766.69
2023-01-19T08:15:43.820Z,98761.47
2023-01-19T08:18:46.228Z,98766.25
2023-01-19T08:21:48.898Z,98765.81
2023-01-19T08:24:51.825Z,98764.69
2023-01-19T08:27:56.573Z,98760.34
2023-01-19T08:31:05.328Z,98774.53
2023-01-19T08:34:17.313Z,98780.34
2023-01-19T08:37:19.643Z,98779.97
2023-01-19T08:40:22.348Z,98791.81
2023-01-19T08:43:26.133Z,98786.59
2023-01-19T08:46:29.147Z,98782.16
2023-01-19T08:49:31.525Z,98789.09
2023-01-19T08:52:34.226Z,98791.81
2023-01-19T08:55:37.099Z,98789.37
2023-01-19T08:58:41.277Z,98780.87
2023-01-19T09:01:43.507Z,98783.63
2023-01-19T09:04:46.304Z,98779.22
2023-01-19T09:07:48.696Z,98782.53
2023-01-19T09:10:51.490Z,98770.84
2023-01-19T09:13:55.549Z,98765.78
2023-01-19T09:16:59.197Z,98762.75
2023-01-19T09:20:01.729Z,98760.44
2023-01-19T09:23:04.698Z,98778.09
2023-01-19T09:26:07.226Z,98785.25
2023-01-19T09:29:11.322Z,98789.03
2023-01-19T09:32:13.717Z,98786.81
2023-01-19T09:35:16.583Z,98779.94
2023-01-19T09:38:19.762Z,98787.38
2023-01-19T09:41:22.547Z,98782.47
2023-01-19T09:44:28.642Z,98785.75
2023-01-19T09:47:31.381Z,98778.50
2023-01-19T09:50:36.470Z,98785.12
2023-01-19T09:53:43.754Z,98796.87
2023-01-19T09:56:46.833Z,98788.91
2023-01-19T09:59:51.455Z,98792.91
2023-01-19T10:02:56.647Z,98795.19
2023-01-19T10:06:01.346Z,98798.16
2023-01-19T10:09:06.297Z,98813.72
2023-01-19T10:12:12.539Z,98805.50
2023-01-19T10:15:20.598Z,98796.25
2023-01-19T10:18:26.466Z,98793.94
2023-01-19T10:21:31.545Z,98791.72
2023-01-19T10:24:37.749Z,98803.28
2023-01-19T10:27:40.230Z,98799.78
2023-01-19T10:30:44.255Z,98801.72
2023-01-19T10:33:46.703Z,98803.59
2023-01-19T10:36:49.870Z,98815.22
2023-01-19T10:39:52.948Z,98804.25
2023-01-19T10:42:56.424Z,98821.50
2023-01-19T10:46:00.299Z,98794.63
2023-01-19T10:49:03.197Z,98801.50
2023-01-19T10:52:06.138Z,98803.22
2023-01-19T10:55:20.169Z,98797.84
2023-01-19T10:58:27.369Z,98790.75
2023-01-19T11:01:31.589Z,98785.81
2023-01-19T11:04:33.824Z,98787.63
2023-01-19T11:07:36.491Z,98799.03
2023-01-19T11:10:38.839Z,98797.09
2023-01-19T11:13:41.670Z,98808.50
2023-01-19T11:16:47.689Z,98815.78
2023-01-19T11:19:57.214Z,98811.53
2023-01-19T11:23:06.957Z,98812.91
2023-01-19T11:26:10.485Z,98812.19
2023-01-19T11:29:16.665Z,98822.56
2023-01-19T11:32:22.410Z,98826.75
2023-01-19T11:35:37.866Z,98827.63
2023-01-19T11:38:41.202Z,98822.41
2023-01-19T11:41:52.295Z,98835.34
2023-01-19T11:45:07.249Z,98834.19
2023-01-19T11:48:15.701Z,98833.88
2023-01-19T11:51:19.426Z,98829.34
2023-01-19T11:54:23.790Z,98831.78
2023-01-19T11:57:26.562Z,98832.06
2023-01-19T12:00:35.672Z,98821.50
2023-01-19T12:03:41.542Z,98832.16
2023-01-19T12:06:45.460Z,98840.84
2023-01-19T12:09:48.758Z,98845.25
2023-01-19T12:12:51.565Z,98866.84
2023-01-19T12:15:57.752Z,98874.91
2023-01-19T12:19:02.658Z,98876.94
2023-01-19T12:22:05.382Z,98876.09
2023-01-19T12:25:14.916Z,98892.19
2023-01-19T12:28:17.787Z,98882.41
2023-01-19T12:31:21.661Z,98878.47
2023-01-19T12:34:40.049Z,98878.50
2023-01-19T12:37:42.897Z,98895.87
2023-01-19T12:40:46.061Z,98900.97
2023-01-19T12:43:48.736Z,98911.66
2023-01-19T12:46:54.472Z,98914.28
2023-01-19T12:50:00.837Z,98916.03
2023-01-19T12:53:04.019Z,98913.97
2023-01-19T12:56:08.654Z,98908.97
2023-01-19T12:59:22.250Z,98921.06
2023-01-19T13:02:49.375Z,98925.03
2023-01-19T13:05:54.316Z,98938.47
2023-01-19T13:08:58.358Z,98944.44
2023-01-19T13:12:21.355Z,98970.22
2023-01-19T13:15:27.743Z,98969.56
2023-01-19T13:18:31.392Z,98965.78
2023-01-19T13:21:36.362Z,98968.12
2023-01-19T13:25:06.699Z,98973.59
2023-01-19T13:28:10.045Z,98983.41
2023-01-19T13:31:12.893Z,98992.44
2023-01-19T13:34:17.158Z,98992.69
2023-01-19T13:37:22.554Z,99000.66
2023-01-19T13:40:27.639Z,99005.88
2023-01-19T13:43:32.385Z,99002.09
2023-01-19T13:46:35.121Z,99010.03
2023-01-19T13:49:39.196Z,99008.16
2023-01-19T13:52:43.187Z,98997.56
2023-01-19T13:55:47.759Z,99009.91
2023-01-19T13:59:10.177Z,99018.84
2023-01-19T14:02:13.018Z,99027.06
2023-01-19T14:05:16.171Z,99043.94
2023-01-19T14:08:20.220Z,99038.44
2023-01-19T14:11:22.945Z,99049.56
2023-01-19T14:14:26.091Z,99052.84
2023-01-19T14:17:30.082Z,99056.41
2023-01-19T14:20:36.782Z,99043.25
2023-01-19T14:23:43.134Z,99046.84
2023-01-19T14:26:46.903Z,99047.94
2023-01-19T14:29:50.745Z,99055.59
2023-01-19T14:32:53.824Z,99065.06
2023-01-19T14:35:56.446Z,99069.06
2023-01-19T14:39:01.066Z,99077.53
2023-01-19T14:42:04.777Z,99072.06
2023-01-19T14:45:13.093Z,99082.06
2023-01-19T14:48:18.180Z,99092.63
2023-01-19T14:51:22.713Z,99102.19
2023-01-19T14:54:30.923Z,99108.09
2023-01-19T14:57:33.971Z,99117.03
2023-01-19T15:00:36.679Z,99127.44
2023-01-19T15:03:44.762Z,99138.41
2023-01-19T15:06:48.437Z,99147.75
2023-01-19T15:09:52.250Z,99152.03
2023-01-19T15:12:54.674Z,99157.91
2023-01-19T15:15:58.331Z,99157.38
2023-01-19T15:19:00.744Z,99147.06
2023-01-19T15:22:09.306Z,99136.22
2023-01-19T15:25:17.698Z,99125.00
2023-01-19T15:28:20.246Z,99110.75
2023-01-19T15:31:23.689Z,99117.81
2023-01-19T15:34:26.103Z,99125.50
2023-01-19T15:37:28.957Z,99124.41
2023-01-19T15:40:32.636Z,99133.94
2023-01-19T15:43:35.102Z,99156.78
2023-01-19T15:46:37.570Z,99149.53
2023-01-19T15:49:40.286Z,99159.66
2023-01-19T15:52:47.102Z,99180.50
2023-01-19T15:55:57.118Z,99190.69
2023-01-19T15:58:59.924Z,99203.03
2023-01-19T16:02:03.432Z,99219.78
2023-01-19T16:05:06.967Z,99219.47
2023-01-19T16:08:10.105Z,99227.16
2023-01-19T16:11:14.673Z,99240.53
2023-01-19T16:14:17.691Z,99246.00
